This is the latest recevied weather packets stored in our database for station/object K7MT-WX. If no packets are shown the sender has not sent any weather packets the latest 10 day(s).
| Time | Temp. | Humidity | Pressure | Rain* | Wind** | Luminosity | Snow |
|---|---|---|---|---|---|---|---|
| 1777564989 | 8.89° C | 61% | 1024 hPa | 0 mm | - | - | - |
| 1777564089 | 6.11° C | 66% | 1024.1 hPa | 0 mm | - | - | - |
| 1777563189 | 5° C | 70% | 1024.3 hPa | 0 mm | - | - | - |
| 1777562289 | 5° C | 68% | 1024.5 hPa | 0 mm | - | - | - |
| 1777561389 | 4.44° C | 69% | 1024.4 hPa | 0 mm | - | - | - |
| 1777560489 | 3.33° C | 76% | 1024.4 hPa | 0 mm | - | - | - |
| 1777559589 | 2.78° C | 78% | 1024.4 hPa | 0 mm | - | - | - |
| 1777558689 | 1.67° C | 78% | 1024.6 hPa | 0 mm | - | - | - |
| 1777557789 | 1.11° C | 81% | 1024.4 hPa | 0 mm | - | - | - |
| 1777556889 | 0.56° C | 80% | 1024.4 hPa | 0 mm | - | - | - |
| 1777555989 | 0° C | 83% | 1024.4 hPa | 0 mm | - | - | - |
| 1777555089 | 0° C | 82% | 1024.3 hPa | 0 mm | - | - | - |
| 1777554159 | 0° C | 82% | 1024.1 hPa | 0 mm | - | - | - |
| 1777553259 | -0.56° C | 82% | 1024.1 hPa | 0 mm | - | - | - |
| 1777552359 | -0.56° C | 83% | 1023.9 hPa | 0 mm | - | - | - |
| 1777551459 | -0.56° C | 82% | 1024 hPa | 0 mm | - | - | - |
| 1777550559 | -0.56° C | 82% | 1024 hPa | 0 mm | - | - | - |
| 1777549659 | -1.11° C | 82% | 1024 hPa | 0 mm | - | - | - |
| 1777548759 | -1.11° C | 82% | 1023.9 hPa | 0 mm | - | - | - |
| 1777547829 | -0.56° C | 81% | 1023.9 hPa | 0 mm | - | - | - |
| 1777546929 | -0.56° C | 80% | 1024 hPa | 0 mm | - | - | - |
| 1777546029 | -1.11° C | 82% | 1023.9 hPa | 0 mm | - | - | - |
| 1777545129 | -0.56° C | 81% | 1023.9 hPa | 0 mm | - | - | - |
| 1777544229 | -0.56° C | 81% | 1023.7 hPa | 0 mm | - | - | - |
| 1777543329 | 0° C | 80% | 1023.7 hPa | 0 mm | - | - | - |
* Rain latest hour (hover to see other rain measurements)
** Current wind speed in m/s (hover to see current wind gust speed)